Terminal Aerodrome Forecast
Issued by NWS

Home | Current Version | Previous Version | Text Only | Print | Product List | Glossary On
Versions: 1 2 3 4 5 6 7 8 9 10 11 12 13 14 15 16 17
000
FTUS44 KMAF 272200 AAA
TAFPEQ
TAF AMD
KPEQ 272206Z 2722/2818 06010KT 5SM BR OVC020
      TEMPO 2722/2802 3SM -SN BR OVC005
     FM280400 06010KT 5SM BR OVC010
      TEMPO 2806/2810 3SM -FZDZSNPL BR OVC005=

USA.gov is the U.S. government's official web portal to all federal, state and local government web resources and services.